Galani — 9HA3640 — position and weather

sailwx.info

Track history (hours):
 
Tides and Currents Weather Stations Pressure Air Temp Water Temp Dewpoint Dewpoint Depression Visibility Wind Speed Wind Dir Waves Ship Positions

Galani

Last reported at 2018-Apr-07 00:08 UTC. Time now 2018-Apr-20 05:12 UTC.
Position N 16°28' W 024°55'.
Warning: this ship's position is 13 days out of date.

Length 177 m; draft 9.5 m.

Type: Ship (hazmat cat A). MMSI: 229821000.

Date/timePositionNaut miles runAvg speedWind from/ knotsBaromVisibWave heightAir tempDewpointWater temp
2018-Apr-07 00:08N 16°28' W 024°55'210.2
2018-Apr-06 23:58N 16°29' W 024°56'510.1
2018-Apr-06 23:30N 16°33' W 024°59'5 9.9
2018-Apr-06 23:00N 16°37' W 025°02'510.2
2018-Apr-06 22:30N 16°41' W 025°04'510.3
2018-Apr-06 22:00N 16°46' W 025°07'510.2
2018-Apr-06 21:30N 16°51' W 025°08'611.0
2018-Apr-06 21:00N 16°54' W 025°03'3 5.9
2018-Apr-06 20:28N 16°53' W 024°60'0 0.1
2018-Apr-06 19:58N 16°53' W 024°60'0 0.0
2018-Apr-06 19:28N 16°53' W 024°60'0 0.0
2018-Apr-06 18:58N 16°53' W 024°60'0 0.0
2018-Apr-06 18:25N 16°53' W 024°60'0 0.0
2018-Apr-06 17:58N 16°53' W 024°60'0 0.0
2018-Apr-06 17:28N 16°53' W 024°60'0 0.0
2018-Apr-06 16:58N 16°53' W 024°60'0 0.0
2018-Apr-06 16:28N 16°53' W 024°60'0 0.0
2018-Apr-06 15:58N 16°53' W 024°60'0 0.0
2018-Apr-06 15:28N 16°53' W 024°60'0 0.0
2018-Apr-06 14:58N 16°53' W 024°60'0 0.0
2018-Apr-06 14:28N 16°53' W 024°60'0 0.0
2018-Apr-06 13:58N 16°53' W 024°60'0 0.0
2018-Apr-06 13:28N 16°53' W 024°60'0 0.0
2018-Apr-06 12:58N 16°53' W 024°60'0 0.0
2018-Apr-06 12:28N 16°53' W 024°60'0 0.0
2018-Apr-06 11:58N 16°53' W 024°60'0 0.0
2018-Apr-06 11:28N 16°53' W 024°60'0 0.0
2018-Apr-06 10:58N 16°53' W 024°60'0 0.0
2018-Apr-06 10:28N 16°53' W 024°60'0 0.0
2018-Apr-06 09:58N 16°53' W 024°60'0 0.0
2018-Apr-06 09:28N 16°53' W 024°60'0 0.0
2018-Apr-06 08:58N 16°53' W 024°60'0 0.0
2018-Apr-06 08:30N 16°53' W 024°60'1 2.1
2018-Apr-06 08:00N 16°53' W 025°01'2 3.7
2018-Apr-06 07:30N 16°54' W 025°03'2 4.2
2018-Apr-06 07:00N 16°54' W 025°05'4 7.6
2018-Apr-06 06:30N 16°51' W 025°08'15 8.7
2018-Apr-06 04:47N 16°41' W 025°20'0 1.4
2018-Apr-06 04:29N 16°41' W 025°19'1 1.2
2018-Apr-06 03:57N 16°42' W 025°19'1 1.6
2018-Apr-06 03:29N 16°43' W 025°18'1 1.7
2018-Apr-06 02:58N 16°43' W 025°18'1 2.0
2018-Apr-06 02:26N 16°44' W 025°17'1 2.1
2018-Apr-06 02:00N 16°45' W 025°17'1 2.1
2018-Apr-06 01:30N 16°46' W 025°16'1 1.9
2018-Apr-06 01:00N 16°46' W 025°15'1 1.9
2018-Apr-06 00:30N 16°47' W 025°14'1 1.9
2018-Apr-06 00:00N 16°47' W 025°14'1 1.7
2018-Apr-05 23:28N 16°48' W 025°13'1 1.6
2018-Apr-05 22:56N 16°48' W 025°12'1 1.6
2018-Apr-05 22:30N 16°49' W 025°11'1 1.6
2018-Apr-05 21:59N 16°49' W 025°11'1 1.4
2018-Apr-05 21:30N 16°50' W 025°10'5 9.2
2018-Apr-05 21:00N 16°53' W 025°08'612.0
2018-Apr-05 20:30N 16°57' W 025°03'612.3
2018-Apr-05 20:00N 17°01' W 024°57'612.3
2018-Apr-05 19:30N 17°05' W 024°53'  
2018-Apr-02 16:36N 28°10' W 016°11'311.2
2018-Apr-02 16:22N 28°12' W 016°09'511.4
2018-Apr-02 15:54N 28°16' W 016°06'511.6
2018-Apr-02 15:30N 28°20' W 016°02'611.5
2018-Apr-02 15:00N 28°24' W 015°58'611.3
2018-Apr-02 14:30N 28°28' W 015°54'611.2
2018-Apr-02 14:00N 28°32' W 015°50'611.1
2018-Apr-02 13:30N 28°37' W 015°45'610.6
2018-Apr-02 12:59N 28°40' W 015°40'510.5
2018-Apr-02 12:30N 28°43' W 015°36'510.4
2018-Apr-02 12:00N 28°47' W 015°32'510.3
2018-Apr-02 11:30N 28°50' W 015°27'510.2
2018-Apr-02 11:00N 28°53' W 015°23'  
2018-Mar-30 20:19N 35°58' W 005°34'3 8.1
2018-Mar-30 20:00N 35°59' W 005°31'4 8.0
2018-Mar-30 19:30N 36°01' W 005°27'5 9.8
2018-Mar-30 19:00N 36°05' W 005°24'4 7.5
2018-Mar-30 18:26N 36°09' W 005°26'1 1.0
2018-Mar-30 17:56N 36°08' W 005°26'0 0.0
2018-Mar-30 16:32N 36°08' W 005°26'0 0.1
2018-Mar-30 16:20N 36°08' W 005°26'0 0.0
2018-Mar-30 15:56N 36°08' W 005°26'0 0.0
2018-Mar-30 15:20N 36°08' W 005°26'0 0.0
2018-Mar-30 14:56N 36°08' W 005°26'0 0.0
2018-Mar-30 14:26N 36°08' W 005°26'0 0.0
2018-Mar-30 09:32N 36°08' W 005°26'0 0.0
2018-Mar-30 09:26N 36°08' W 005°26'0 0.0
2018-Mar-30 08:08N 36°08' W 005°26'0 0.0
2018-Mar-30 07:56N 36°08' W 005°26'0 0.0
2018-Mar-30 07:26N 36°08' W 005°26'0 0.0
2018-Mar-30 04:32N 36°08' W 005°26'0 0.0
2018-Mar-30 04:20N 36°08' W 005°26'0 0.0
2018-Mar-30 03:56N 36°08' W 005°26'0 0.0
2018-Mar-30 03:26N 36°08' W 005°26'0 0.0
2018-Mar-30 02:59N 36°08' W 005°26'0 0.0
2018-Mar-30 02:26N 36°08' W 005°26'0 0.0
2018-Mar-30 01:56N 36°08' W 005°26'0 0.0
2018-Mar-30 01:20N 36°08' W 005°26'0 0.0
2018-Mar-30 00:56N 36°08' W 005°26'0 0.0
2018-Mar-30 00:26N 36°08' W 005°26'0 0.0
2018-Mar-29 23:59N 36°08' W 005°26'0 0.0
2018-Mar-29 23:20N 36°08' W 005°26'0 0.0
2018-Mar-29 22:56N 36°08' W 005°26'0 0.0
2018-Mar-29 22:20N 36°08' W 005°26'0 0.0
2018-Mar-29 21:26N 36°08' W 005°26'0 0.0
2018-Mar-29 20:50N 36°08' W 005°26'0 0.4
2018-Mar-29 20:30N 36°08' W 005°26'2 3.4
2018-Mar-29 20:00N 36°08' W 005°24'3 5.8
2018-Mar-29 19:29N 36°05' W 005°22'4 7.9
2018-Mar-29 19:01N 36°03' W 005°19'2 4.6
2018-Mar-29 18:31N 36°03' W 005°16'3 1.1
2018-Mar-29 15:32N 35°60' W 005°15'012.3
2018-Mar-29 15:31N 35°60' W 005°15'713.4
2018-Mar-29 15:00N 35°58' W 005°23'52816.4
2018-Mar-28 06:52N 29°28' W 012°26'617.5
2018-Mar-28 06:31N 29°23' W 012°30'917.4
2018-Mar-28 06:01N 29°16' W 012°35'917.3
2018-Mar-28 05:31N 29°08' W 012°40'917.3
2018-Mar-28 05:00N 29°01' W 012°46'917.2
2018-Mar-28 04:31N 28°54' W 012°51'917.2
2018-Mar-28 04:00N 28°47' W 012°57'917.1
2018-Mar-28 03:30N 28°40' W 013°02'916.9
2018-Mar-28 03:00N 28°32' W 013°08'1417.0
2018-Mar-28 02:10N 28°21' W 013°16'316.8
2018-Mar-28 02:00N 28°18' W 013°18'816.7
2018-Mar-28 01:30N 28°11' W 013°23'1017.0
2018-Mar-28 00:54N 28°02' W 013°29'717.3
2018-Mar-28 00:30N 27°57' W 013°33'  
Track history (hours):
 
Tides and Currents Weather Stations Pressure Air Temp Water Temp Dewpoint Dewpoint Depression Visibility Wind Speed Wind Dir Waves Ship Positions

Galani

Last reported at 2018-Apr-07 00:08 UTC. Time now 2018-Apr-20 05:12 UTC.
Position N 16°28' W 024°55'.
Warning: this ship's position is 13 days out of date.

Length 177 m; draft 9.5 m.

Type: Ship (hazmat cat A). MMSI: 229821000.

Date/timePositionNaut miles runAvg speedWind from/ knotsBaromVisibWave heightAir tempDewpointWater temp
2018-Apr-07 00:08N 16°28' W 024°55'210.2
2018-Apr-06 23:58N 16°29' W 024°56'510.1
2018-Apr-06 23:30N 16°33' W 024°59'5 9.9
2018-Apr-06 23:00N 16°37' W 025°02'510.2
2018-Apr-06 22:30N 16°41' W 025°04'510.3
2018-Apr-06 22:00N 16°46' W 025°07'510.2
2018-Apr-06 21:30N 16°51' W 025°08'611.0
2018-Apr-06 21:00N 16°54' W 025°03'3 5.9
2018-Apr-06 20:28N 16°53' W 024°60'0 0.1
2018-Apr-06 19:58N 16°53' W 024°60'0 0.0
2018-Apr-06 19:28N 16°53' W 024°60'0 0.0
2018-Apr-06 18:58N 16°53' W 024°60'0 0.0
2018-Apr-06 18:25N 16°53' W 024°60'0 0.0
2018-Apr-06 17:58N 16°53' W 024°60'0 0.0
2018-Apr-06 17:28N 16°53' W 024°60'0 0.0
2018-Apr-06 16:58N 16°53' W 024°60'0 0.0
2018-Apr-06 16:28N 16°53' W 024°60'0 0.0
2018-Apr-06 15:58N 16°53' W 024°60'0 0.0
2018-Apr-06 15:28N 16°53' W 024°60'0 0.0
2018-Apr-06 14:58N 16°53' W 024°60'0 0.0
2018-Apr-06 14:28N 16°53' W 024°60'0 0.0
2018-Apr-06 13:58N 16°53' W 024°60'0 0.0
2018-Apr-06 13:28N 16°53' W 024°60'0 0.0
2018-Apr-06 12:58N 16°53' W 024°60'0 0.0
2018-Apr-06 12:28N 16°53' W 024°60'0 0.0
2018-Apr-06 11:58N 16°53' W 024°60'0 0.0
2018-Apr-06 11:28N 16°53' W 024°60'0 0.0
2018-Apr-06 10:58N 16°53' W 024°60'0 0.0
2018-Apr-06 10:28N 16°53' W 024°60'0 0.0
2018-Apr-06 09:58N 16°53' W 024°60'0 0.0
2018-Apr-06 09:28N 16°53' W 024°60'0 0.0
2018-Apr-06 08:58N 16°53' W 024°60'0 0.0
2018-Apr-06 08:30N 16°53' W 024°60'1 2.1
2018-Apr-06 08:00N 16°53' W 025°01'2 3.7
2018-Apr-06 07:30N 16°54' W 025°03'2 4.2
2018-Apr-06 07:00N 16°54' W 025°05'4 7.6
2018-Apr-06 06:30N 16°51' W 025°08'15 8.7
2018-Apr-06 04:47N 16°41' W 025°20'0 1.4
2018-Apr-06 04:29N 16°41' W 025°19'1 1.2
2018-Apr-06 03:57N 16°42' W 025°19'1 1.6
2018-Apr-06 03:29N 16°43' W 025°18'1 1.7
2018-Apr-06 02:58N 16°43' W 025°18'1 2.0
2018-Apr-06 02:26N 16°44' W 025°17'1 2.1
2018-Apr-06 02:00N 16°45' W 025°17'1 2.1
2018-Apr-06 01:30N 16°46' W 025°16'1 1.9
2018-Apr-06 01:00N 16°46' W 025°15'1 1.9
2018-Apr-06 00:30N 16°47' W 025°14'1 1.9
2018-Apr-06 00:00N 16°47' W 025°14'1 1.7
2018-Apr-05 23:28N 16°48' W 025°13'1 1.6
2018-Apr-05 22:56N 16°48' W 025°12'1 1.6
2018-Apr-05 22:30N 16°49' W 025°11'1 1.6
2018-Apr-05 21:59N 16°49' W 025°11'1 1.4
2018-Apr-05 21:30N 16°50' W 025°10'5 9.2
2018-Apr-05 21:00N 16°53' W 025°08'612.0
2018-Apr-05 20:30N 16°57' W 025°03'612.3
2018-Apr-05 20:00N 17°01' W 024°57'612.3
2018-Apr-05 19:30N 17°05' W 024°53'  
2018-Apr-02 16:36N 28°10' W 016°11'311.2
2018-Apr-02 16:22N 28°12' W 016°09'511.4
2018-Apr-02 15:54N 28°16' W 016°06'511.6
2018-Apr-02 15:30N 28°20' W 016°02'611.5
2018-Apr-02 15:00N 28°24' W 015°58'611.3
2018-Apr-02 14:30N 28°28' W 015°54'611.2
2018-Apr-02 14:00N 28°32' W 015°50'611.1
2018-Apr-02 13:30N 28°37' W 015°45'610.6
2018-Apr-02 12:59N 28°40' W 015°40'510.5
2018-Apr-02 12:30N 28°43' W 015°36'510.4
2018-Apr-02 12:00N 28°47' W 015°32'510.3
2018-Apr-02 11:30N 28°50' W 015°27'510.2
2018-Apr-02 11:00N 28°53' W 015°23'  
2018-Mar-30 20:19N 35°58' W 005°34'3 8.1
2018-Mar-30 20:00N 35°59' W 005°31'4 8.0
2018-Mar-30 19:30N 36°01' W 005°27'5 9.8
2018-Mar-30 19:00N 36°05' W 005°24'4 7.5
2018-Mar-30 18:26N 36°09' W 005°26'1 1.0
2018-Mar-30 17:56N 36°08' W 005°26'0 0.0
2018-Mar-30 16:32N 36°08' W 005°26'0 0.1
2018-Mar-30 16:20N 36°08' W 005°26'0 0.0
2018-Mar-30 15:56N 36°08' W 005°26'0 0.0
2018-Mar-30 15:20N 36°08' W 005°26'0 0.0
2018-Mar-30 14:56N 36°08' W 005°26'0 0.0
2018-Mar-30 14:26N 36°08' W 005°26'0 0.0
2018-Mar-30 09:32N 36°08' W 005°26'0 0.0
2018-Mar-30 09:26N 36°08' W 005°26'0 0.0
2018-Mar-30 08:08N 36°08' W 005°26'0 0.0
2018-Mar-30 07:56N 36°08' W 005°26'0 0.0
2018-Mar-30 07:26N 36°08' W 005°26'0 0.0
2018-Mar-30 04:32N 36°08' W 005°26'0 0.0
2018-Mar-30 04:20N 36°08' W 005°26'0 0.0
2018-Mar-30 03:56N 36°08' W 005°26'0 0.0
2018-Mar-30 03:26N 36°08' W 005°26'0 0.0
2018-Mar-30 02:59N 36°08' W 005°26'0 0.0
2018-Mar-30 02:26N 36°08' W 005°26'0 0.0
2018-Mar-30 01:56N 36°08' W 005°26'0 0.0
2018-Mar-30 01:20N 36°08' W 005°26'0 0.0
2018-Mar-30 00:56N 36°08' W 005°26'0 0.0
2018-Mar-30 00:26N 36°08' W 005°26'0 0.0
2018-Mar-29 23:59N 36°08' W 005°26'0 0.0
2018-Mar-29 23:20N 36°08' W 005°26'0 0.0
2018-Mar-29 22:56N 36°08' W 005°26'0 0.0
2018-Mar-29 22:20N 36°08' W 005°26'0 0.0
2018-Mar-29 21:26N 36°08' W 005°26'0 0.0
2018-Mar-29 20:50N 36°08' W 005°26'0 0.4
2018-Mar-29 20:30N 36°08' W 005°26'2 3.4
2018-Mar-29 20:00N 36°08' W 005°24'3 5.8
2018-Mar-29 19:29N 36°05' W 005°22'4 7.9
2018-Mar-29 19:01N 36°03' W 005°19'2 4.6
2018-Mar-29 18:31N 36°03' W 005°16'3 1.1
2018-Mar-29 15:32N 35°60' W 005°15'012.3
2018-Mar-29 15:31N 35°60' W 005°15'713.4
2018-Mar-29 15:00N 35°58' W 005°23'52816.4
2018-Mar-28 06:52N 29°28' W 012°26'617.5
2018-Mar-28 06:31N 29°23' W 012°30'917.4
2018-Mar-28 06:01N 29°16' W 012°35'917.3
2018-Mar-28 05:31N 29°08' W 012°40'917.3
2018-Mar-28 05:00N 29°01' W 012°46'917.2
2018-Mar-28 04:31N 28°54' W 012°51'917.2
2018-Mar-28 04:00N 28°47' W 012°57'917.1
2018-Mar-28 03:30N 28°40' W 013°02'916.9
2018-Mar-28 03:00N 28°32' W 013°08'1417.0
2018-Mar-28 02:10N 28°21' W 013°16'316.8
2018-Mar-28 02:00N 28°18' W 013°18'816.7
2018-Mar-28 01:30N 28°11' W 013°23'1017.0
2018-Mar-28 00:54N 28°02' W 013°29'717.3
2018-Mar-28 00:30N 27°57' W 013°33'  

Dump ship's entire track history